Time;durP1;ratioP1;P1;durP2;ratioP2;P2;SDS_P1;SDS_P2;PMS_P1;PMS_P2;Temp;Humidity;BMP_temperature;BMP_pressure;BME280_temperature;BME280_humidity;BME280_pressure;Samples;Min_cycle;Max_cycle;Signal;HPM_P1;HPM_P2
2024/01/30 00:02:14;;;;;;;6.17;4.07;;;;;;;3.07;100.00;146984.91;4975962;28;21002;-67
2024/01/30 00:04:41;;;;;;;7.27;4.13;;;;;;;2.96;100.00;146957.66;4972921;28;20234;-67
2024/01/30 00:07:09;;;;;;;12.70;4.27;;;;;;;2.91;100.00;146945.28;4978767;28;20381;-67
2024/01/30 00:09:36;;;;;;;4.73;3.70;;;;;;;2.94;100.00;146953.94;4974504;28;20234;-67
2024/01/30 00:12:03;;;;;;;7.80;4.57;;;;;;;2.88;100.00;146939.06;4980370;28;20241;-67
2024/01/30 00:14:29;;;;;;;8.67;4.60;;;;;;;2.91;100.00;146945.28;4973009;28;20312;-67
2024/01/30 00:16:56;;;;;;;6.83;4.40;;;;;;;2.97;100.00;146960.13;4975145;28;20228;-67
2024/01/30 00:19:23;;;;;;;6.87;4.20;;;;;;;2.94;100.00;146952.72;4977132;28;20213;-67
2024/01/30 00:21:50;;;;;;;9.13;4.67;;;;;;;2.94;100.00;146952.72;4976480;28;20244;-67
2024/01/30 00:24:18;;;;;;;7.50;4.70;;;;;;;2.88;100.00;146937.84;4977048;28;20225;-67
2024/01/30 00:26:45;;;;;;;8.03;4.80;;;;;;;2.89;100.00;146941.53;4975212;28;20253;-67
2024/01/30 00:29:12;;;;;;;8.37;4.83;;;;;;;2.79;100.00;146918.03;4977038;28;20253;-67
2024/01/30 00:31:38;;;;;;;10.60;5.00;;;;;;;2.80;100.00;146919.25;4973947;28;20647;-67
2024/01/30 00:34:05;;;;;;;9.33;5.17;;;;;;;2.77;100.00;146911.81;4977747;28;20236;-67
2024/01/30 00:36:31;;;;;;;7.23;4.43;;;;;;;2.76;100.00;146909.31;4972975;28;20225;-67
2024/01/30 00:38:59;;;;;;;10.83;4.70;;;;;;;2.77;100.00;146913.06;4977362;28;20233;-67
2024/01/30 00:41:27;;;;;;;8.13;4.63;;;;;;;2.70;100.00;146894.47;4974020;28;20307;-67
2024/01/30 00:43:54;;;;;;;8.00;4.30;;;;;;;2.67;100.00;146888.28;4977455;28;20235;-67
2024/01/30 00:46:21;;;;;;;8.07;4.47;;;;;;;2.61;100.00;146873.44;4974334;28;20232;-67
2024/01/30 00:48:47;;;;;;;7.80;4.80;;;;;;;2.65;100.00;146883.34;4978105;28;20235;-67
2024/01/30 00:51:14;;;;;;;11.30;4.80;;;;;;;2.55;100.00;146859.81;4978659;28;20681;-67
2024/01/30 00:53:41;;;;;;;6.90;4.60;;;;;;;2.52;100.00;146852.41;4974700;28;20235;-67
2024/01/30 00:56:08;;;;;;;9.83;4.57;;;;;;;2.63;100.00;146878.38;4976691;28;20693;-67
2024/01/30 00:58:36;;;;;;;11.07;5.60;;;;;;;2.60;100.00;146872.22;4974291;28;20241;-67
2024/01/30 01:01:03;;;;;;;10.87;6.03;;;;;;;2.57;100.00;146864.78;4976239;28;20233;-67
2024/01/30 01:03:30;;;;;;;10.20;4.77;;;;;;;2.63;100.00;146878.38;4974721;28;20227;-67
2024/01/30 01:05:57;;;;;;;7.97;5.03;;;;;;;2.54;100.00;146857.34;4977630;28;20262;-67
2024/01/30 01:08:23;;;;;;;8.67;4.90;;;;;;;2.47;100.00;146841.22;4977663;28;20228;-67
2024/01/30 01:10:50;;;;;;;10.37;4.80;;;;;;;2.41;100.00;146825.16;4977679;28;20220;-67
2024/01/30 01:13:17;;;;;;;8.33;4.63;;;;;;;2.41;100.00;146826.34;4974379;28;20848;-67
2024/01/30 01:15:45;;;;;;;6.33;4.13;;;;;;;2.35;100.00;146812.75;4975482;28;20237;-67
2024/01/30 01:18:11;;;;;;;6.37;4.70;;;;;;;2.28;100.00;146794.16;4976125;28;20248;-67
2024/01/30 01:20:38;;;;;;;7.27;4.40;;;;;;;2.36;100.00;146813.97;4971749;28;20244;-67
2024/01/30 01:23:05;;;;;;;7.97;4.30;;;;;;;2.29;100.00;146796.63;4977700;28;20275;-67
2024/01/30 01:25:31;;;;;;;9.27;4.37;;;;;;;2.41;100.00;146825.16;4958039;28;20216;-67
2024/01/30 01:27:58;;;;;;;10.50;5.20;;;;;;;2.36;100.00;146815.25;4968858;28;20537;-67
2024/01/30 01:30:25;;;;;;;10.47;5.83;;;;;;;2.37;100.00;146816.44;4973123;28;20299;-67
2024/01/30 01:32:56;;;;;;;13.57;6.07;;;;;;;2.42;100.00;146828.84;4975394;28;20242;-67
2024/01/30 01:35:24;;;;;;;9.77;5.40;;;;;;;2.32;100.00;146804.06;4974987;28;20221;-67
2024/01/30 01:37:54;;;;;;;8.30;5.43;;;;;;;2.30;100.00;146800.38;4982186;28;20237;-67
2024/01/30 01:40:23;;;;;;;7.60;5.37;;;;;;;2.32;100.00;146804.06;4977112;28;20231;-67
2024/01/30 01:42:51;;;;;;;11.00;5.57;;;;;;;2.25;100.00;146786.72;4978188;28;20261;-67
2024/01/30 01:45:17;;;;;;;8.53;5.27;;;;;;;2.20;100.00;146776.81;4982456;28;20284;-67
2024/01/30 01:47:47;;;;;;;14.30;6.00;;;;;;;2.33;100.00;146806.53;4981386;28;20736;-67
2024/01/30 01:50:18;;;;;;;8.50;5.57;;;;;;;2.23;100.00;146783.03;4984919;28;20243;-67
2024/01/30 01:52:47;;;;;;;8.67;5.77;;;;;;;2.27;100.00;146791.69;4977327;28;20249;-67
2024/01/30 01:55:15;;;;;;;13.83;6.43;;;;;;;2.28;100.00;146794.16;4982378;28;20566;-67
2024/01/30 01:57:42;;;;;;;11.27;6.77;;;;;;;2.35;100.00;146811.50;4978899;28;20748;-67
2024/01/30 02:00:10;;;;;;;12.57;6.77;;;;;;;2.23;100.00;146783.03;4981312;28;20252;-67
2024/01/30 02:02:38;;;;;;;13.33;6.60;;;;;;;2.24;100.00;146785.53;4976028;28;20259;-67
2024/01/30 02:05:05;;;;;;;11.30;6.60;;;;;;;2.21;100.00;146778.09;4978514;28;20237;-67
2024/01/30 02:07:33;;;;;;;12.63;6.77;;;;;;;2.15;100.00;146764.44;4976295;28;20231;-67
2024/01/30 02:09:59;;;;;;;13.87;6.83;;;;;;;2.20;100.00;146775.63;4980973;28;20569;-67
2024/01/30 02:12:26;;;;;;;13.50;7.00;;;;;;;2.18;100.00;146771.88;4977960;28;20224;-67
2024/01/30 02:14:53;;;;;;;10.60;5.63;;;;;;;2.26;100.00;146789.22;4974262;28;20693;-67
2024/01/30 02:17:20;;;;;;;8.73;5.03;;;;;;;2.20;100.00;146776.81;4975841;28;20228;-67
2024/01/30 02:19:46;;;;;;;9.27;4.90;;;;;;;2.15;100.00;146764.44;4973128;28;20546;-67
2024/01/30 02:22:15;;;;;;;7.57;3.90;;;;;;;2.11;100.00;146753.31;4984221;28;20253;-67
2024/01/30 02:24:41;;;;;;;9.57;4.77;;;;;;;2.10;100.00;146750.84;4976160;28;20221;-67
2024/01/30 02:27:08;;;;;;;7.93;5.23;;;;;;;2.12;100.00;146757.00;4972994;28;20245;-67
2024/01/30 02:29:35;;;;;;;8.37;5.37;;;;;;;2.02;100.00;146733.50;4983791;28;20324;-67
2024/01/30 02:32:02;;;;;;;6.73;4.30;;;;;;;2.11;100.00;146753.31;4977019;28;20317;-67
2024/01/30 02:34:28;;;;;;;9.83;5.17;;;;;;;2.04;100.00;146738.47;4981530;28;20232;-67
2024/01/30 02:36:55;;;;;;;11.83;6.27;;;;;;;2.00;100.00;146727.34;4979061;28;20319;-67
2024/01/30 02:39:23;;;;;;;8.83;5.40;;;;;;;2.06;100.00;146743.41;4976020;28;20234;-67
2024/01/30 02:41:50;;;;;;;10.47;6.03;;;;;;;2.00;100.00;146728.56;4976895;28;20244;-67
2024/01/30 02:44:16;;;;;;;12.57;6.30;;;;;;;1.96;100.00;146718.66;4986920;28;20236;-67
2024/01/30 02:46:43;;;;;;;13.37;6.27;;;;;;;1.97;100.00;146719.91;4976160;28;20225;-67
2024/01/30 02:49:09;;;;;;;10.97;5.90;;;;;;;1.97;100.00;146721.13;4978932;28;20233;-67
2024/01/30 02:51:36;;;;;;;10.73;5.87;;;;;;;2.03;100.00;146736.00;4976665;28;20240;-67
2024/01/30 02:54:03;;;;;;;11.10;5.93;;;;;;;2.06;100.00;146742.19;4978303;28;20240;-67
2024/01/30 02:56:31;;;;;;;11.73;5.43;;;;;;;2.03;100.00;146736.00;4975412;28;20225;-67
2024/01/30 02:58:57;;;;;;;9.13;5.80;;;;;;;1.98;100.00;146722.38;4977604;28;20229;-67
2024/01/30 03:01:25;;;;;;;8.67;5.67;;;;;;;2.05;100.00;146739.72;4976972;28;20217;-67
2024/01/30 03:03:51;;;;;;;9.17;5.37;;;;;;;2.11;100.00;146753.31;4976802;28;20260;-67
2024/01/30 03:06:20;;;;;;;9.17;5.33;;;;;;;2.04;100.00;146738.47;4972742;28;20237;-67
2024/01/30 03:08:46;;;;;;;10.00;5.47;;;;;;;2.05;100.00;146740.94;4976800;28;20576;-66
2024/01/30 03:11:13;;;;;;;7.83;4.70;;;;;;;2.06;100.00;146742.19;4975910;28;20237;-66
2024/01/30 03:13:41;;;;;;;8.80;5.07;;;;;;;1.98;100.00;146722.38;4975780;28;20240;-67
2024/01/30 03:16:09;;;;;;;11.23;5.27;;;;;;;1.98;100.00;146722.38;4981549;28;20232;-67
2024/01/30 03:18:35;;;;;;;7.33;5.23;;;;;;;1.88;100.00;146700.09;4978586;28;20244;-67
2024/01/30 03:21:02;;;;;;;8.93;4.70;;;;;;;1.92;100.00;146710.00;4978029;28;20669;-67
2024/01/30 03:23:32;;;;;;;9.80;5.40;;;;;;;1.89;100.00;146702.59;4984982;28;20370;-67
2024/01/30 03:25:58;;;;;;;10.80;5.23;;;;;;;1.87;100.00;146697.63;4983726;28;20237;-67
2024/01/30 03:28:25;;;;;;;10.13;5.13;;;;;;;1.83;100.00;146686.47;4969721;28;20260;-67
2024/01/30 03:30:53;;;;;;;6.87;4.57;;;;;;;1.80;100.00;146679.03;4983732;28;20237;-67
2024/01/30 03:33:19;;;;;;;8.70;4.83;;;;;;;1.87;100.00;146697.63;4974657;28;20252;-67
2024/01/30 03:35:46;;;;;;;8.60;4.57;;;;;;;1.79;100.00;146677.81;4983896;28;20237;-67
2024/01/30 03:38:13;;;;;;;7.33;4.90;;;;;;;1.73;100.00;146662.97;4996184;28;20230;-67
2024/01/30 03:40:39;;;;;;;7.03;4.40;;;;;;;1.79;100.00;146677.81;4975487;28;20240;-67
2024/01/30 03:43:06;;;;;;;6.40;4.23;;;;;;;1.86;100.00;146695.16;4983521;28;20238;-67
2024/01/30 03:45:32;;;;;;;11.20;5.00;;;;;;;1.91;100.00;146706.28;4976298;28;20209;-66
2024/01/30 03:48:00;;;;;;;10.50;5.37;;;;;;;1.86;100.00;146693.91;4976462;28;20318;-67
2024/01/30 03:50:28;;;;;;;8.73;4.47;;;;;;;1.85;100.00;146692.69;4972300;28;20206;-67
2024/01/30 03:52:54;;;;;;;9.97;4.27;;;;;;;1.86;100.00;146695.16;4976752;28;20719;-67
2024/01/30 03:55:21;;;;;;;6.73;4.30;;;;;;;1.80;100.00;146679.03;4976904;28;20233;-67
2024/01/30 03:57:47;;;;;;;8.07;3.63;;;;;;;1.72;100.00;146661.72;4978774;28;20233;-67
2024/01/30 04:00:15;;;;;;;8.30;5.30;;;;;;;1.79;100.00;146676.56;4977997;28;20235;-67
2024/01/30 04:02:42;;;;;;;6.50;4.60;;;;;;;1.79;100.00;146677.81;4972539;28;20238;-67
2024/01/30 04:05:10;;;;;;;9.20;4.90;;;;;;;1.80;100.00;146679.03;4974564;28;20690;-67
2024/01/30 04:07:37;;;;;;;11.90;5.90;;;;;;;1.85;100.00;146692.69;4977727;28;20233;-67
2024/01/30 04:10:05;;;;;;;7.70;4.60;;;;;;;1.76;100.00;146670.41;4976882;28;20228;-67
2024/01/30 04:12:32;;;;;;;7.30;4.20;;;;;;;1.77;100.00;146674.09;4974980;28;20320;-67
2024/01/30 04:14:58;;;;;;;6.57;4.10;;;;;;;1.85;100.00;146691.41;4976642;28;20226;-67
2024/01/30 04:17:25;;;;;;;5.83;3.63;;;;;;;1.81;100.00;146682.78;4978019;28;20225;-67
2024/01/30 04:19:51;;;;;;;6.20;3.50;;;;;;;1.90;100.00;146705.06;4974118;28;20232;-67
2024/01/30 04:22:19;;;;;;;7.07;3.20;;;;;;;1.84;100.00;146690.22;4987082;28;20580;-67
2024/01/30 04:24:46;;;;;;;4.80;3.20;;;;;;;1.84;100.00;146688.94;4975960;28;20240;-67
2024/01/30 04:27:13;;;;;;;7.63;3.27;;;;;;;1.88;100.00;146698.84;4973810;28;20460;-67
2024/01/30 04:29:40;;;;;;;7.33;3.27;;;;;;;1.88;100.00;146700.09;4981381;28;20340;-67
2024/01/30 04:32:07;;;;;;;5.27;2.80;;;;;;;2.01;100.00;146729.81;5202547;23;20325;-67
2024/01/30 04:34:33;;;;;;;4.97;2.47;;;;;;;2.17;100.00;146768.19;4972036;28;20267;-67
2024/01/30 04:37:00;;;;;;;4.73;3.07;;;;;;;2.06;100.00;146742.19;4974113;28;20225;-67
2024/01/30 04:39:28;;;;;;;4.90;2.53;;;;;;;2.20;100.00;146776.81;4972833;28;20581;-67
2024/01/30 04:41:54;;;;;;;4.00;3.00;;;;;;;2.11;100.00;146754.59;4975157;28;20257;-67
2024/01/30 04:44:21;;;;;;;5.33;3.20;;;;;;;2.11;100.00;146754.59;4970642;28;20899;-67
2024/01/30 04:46:48;;;;;;;4.33;2.67;;;;;;;2.16;100.00;146765.72;4978518;28;20241;-67
2024/01/30 04:49:14;;;;;;;7.40;2.93;;;;;;;2.13;100.00;146758.28;4989526;28;20221;-67
2024/01/30 04:51:41;;;;;;;4.47;2.40;;;;;;;2.07;100.00;146744.69;4973519;28;20259;-67
2024/01/30 04:54:07;;;;;;;5.77;2.57;;;;;;;2.19;100.00;146774.34;4971191;28;20218;-67
2024/01/30 04:56:36;;;;;;;4.60;2.73;;;;;;;2.30;100.00;146800.38;4971920;28;20217;-67
2024/01/30 04:59:03;;;;;;;7.17;2.63;;;;;;;2.27;100.00;146791.69;4976651;28;20293;-67
2024/01/30 05:01:29;;;;;;;4.93;2.70;;;;;;;2.24;100.00;146784.25;4976070;28;20716;-67
2024/01/30 05:03:56;;;;;;;5.33;2.63;;;;;;;2.21;100.00;146779.31;4976397;28;20225;-67
2024/01/30 05:06:26;;;;;;;5.67;2.70;;;;;;;2.19;100.00;146774.34;4972063;28;20228;-67
2024/01/30 05:08:53;;;;;;;4.53;2.80;;;;;;;2.15;100.00;146763.22;4972264;28;20613;-67
2024/01/30 05:11:19;;;;;;;5.00;2.67;;;;;;;2.14;100.00;146760.75;4971609;28;20229;-67
2024/01/30 05:13:47;;;;;;;8.30;2.97;;;;;;;2.26;100.00;146789.22;4973168;28;20593;-67
2024/01/30 05:16:14;;;;;;;6.53;2.40;;;;;;;2.25;100.00;146786.72;4979311;28;20233;-67
2024/01/30 05:18:41;;;;;;;3.73;2.67;;;;;;;2.30;100.00;146800.38;4967270;28;20230;-67
2024/01/30 05:21:08;;;;;;;6.97;2.80;;;;;;;2.25;100.00;146788.00;4978667;28;20728;-67
2024/01/30 05:23:34;;;;;;;9.03;2.70;;;;;;;2.26;100.00;146789.22;4975935;28;20656;-67
2024/01/30 05:26:02;;;;;;;5.77;2.37;;;;;;;2.27;100.00;146792.94;4979933;28;20229;-67
2024/01/30 05:28:31;;;;;;;4.95;3.30;;;;;;;2.21;100.00;146778.09;4976098;28;20444;-67
2024/01/30 05:30:59;;;;;;;6.03;3.27;;;;;;;2.31;100.00;146802.84;4980472;28;20221;-67
2024/01/30 05:33:29;;;;;;;5.73;3.13;;;;;;;2.25;100.00;146788.00;4972400;28;20685;-68
2024/01/30 05:35:55;;;;;;;5.00;3.20;;;;;;;2.30;100.00;146800.38;4976380;28;20582;-67
2024/01/30 05:38:22;;;;;;;5.73;2.90;;;;;;;2.36;100.00;146813.97;4974103;28;20657;-67
2024/01/30 05:40:49;;;;;;;9.20;2.60;;;;;;;2.33;100.00;146806.53;4991277;28;20225;-67
2024/01/30 05:43:15;;;;;;;4.43;2.80;;;;;;;2.33;100.00;146807.81;4976422;28;20664;-67
2024/01/30 05:45:42;;;;;;;4.80;2.80;;;;;;;2.30;100.00;146799.13;4974786;28;20240;-67
2024/01/30 05:48:10;;;;;;;4.53;3.20;;;;;;;2.25;100.00;146788.00;4977029;28;20259;-67
2024/01/30 05:50:36;;;;;;;5.53;3.10;;;;;;;2.24;100.00;146784.25;4974235;28;20684;-67
2024/01/30 05:53:03;;;;;;;8.90;4.13;;;;;;;2.31;100.00;146801.59;4976239;28;20247;-67
2024/01/30 05:55:30;;;;;;;4.77;2.73;;;;;;;2.30;100.00;146800.38;4977573;28;20224;-66
2024/01/30 05:57:56;;;;;;;5.25;3.35;;;;;;;2.27;100.00;146791.69;4990975;28;20448;-66
2024/01/30 06:00:23;;;;;;;5.30;2.97;;;;;;;2.38;100.00;146817.72;4976691;28;20222;-66
2024/01/30 06:02:50;;;;;;;5.70;3.00;;;;;;;2.36;100.00;146815.25;4979793;28;20743;-67
2024/01/30 06:05:18;;;;;;;4.27;2.37;;;;;;;2.39;100.00;146820.19;4975868;28;20217;-66
2024/01/30 06:07:44;;;;;;;4.43;2.30;;;;;;;2.31;100.00;146801.59;4978494;28;20233;-67
2024/01/30 06:10:11;;;;;;;3.00;2.50;;;;;;;2.38;100.00;146817.72;4975257;28;20247;-67
2024/01/30 06:12:38;;;;;;;4.17;2.57;;;;;;;2.29;100.00;146796.63;4972912;28;20233;-68
2024/01/30 06:15:06;;;;;;;7.33;2.73;;;;;;;2.45;100.00;146835.06;4977524;28;20234;-68
2024/01/30 06:17:33;;;;;;;5.77;2.80;;;;;;;2.41;100.00;146826.34;4972111;28;20214;-68
2024/01/30 06:20:00;;;;;;;19.03;8.43;;;;;;;2.46;100.00;146837.53;4976595;28;20325;-69
2024/01/30 06:22:28;;;;;;;28.33;13.43;;;;;;;2.55;100.00;146858.56;4974008;28;20224;-68
2024/01/30 06:24:54;;;;;;;11.80;7.43;;;;;;;2.54;100.00;146857.34;4962573;28;20233;-68
2024/01/30 06:27:21;;;;;;;9.00;5.10;;;;;;;2.39;100.00;146821.41;4982278;28;20445;-68
2024/01/30 06:29:48;;;;;;;16.47;9.40;;;;;;;2.38;100.00;146817.72;4977462;28;20255;-68
2024/01/30 06:32:14;;;;;;;10.83;5.40;;;;;;;2.58;100.00;146866.00;4977022;28;20256;-68
2024/01/30 06:34:44;;;;;;;10.47;4.70;;;;;;;2.58;100.00;146866.00;4980118;28;20319;-68
2024/01/30 06:37:10;;;;;;;41.40;19.23;;;;;;;2.50;100.00;146848.66;4984097;28;20596;-68
2024/01/30 06:39:38;;;;;;;83.00;41.70;;;;;;;2.57;100.00;146864.78;4974809;28;20241;-68
2024/01/30 06:42:05;;;;;;;22.90;12.30;;;;;;;2.69;100.00;146891.97;4975054;28;20237;-68
2024/01/30 06:44:32;;;;;;;9.40;5.67;;;;;;;2.73;100.00;146903.16;4977145;28;20240;-68
2024/01/30 06:46:59;;;;;;;15.27;7.70;;;;;;;2.64;100.00;146882.13;4990906;28;20225;-68
2024/01/30 06:49:25;;;;;;;9.17;4.80;;;;;;;2.77;100.00;146911.81;4980900;28;20222;-68
2024/01/30 06:51:52;;;;;;;6.13;3.13;;;;;;;2.73;100.00;146903.16;4982568;28;20250;-68
2024/01/30 06:54:19;;;;;;;4.37;2.67;;;;;;;2.63;100.00;146879.63;4976030;28;20225;-68
2024/01/30 06:56:47;;;;;;;6.37;2.77;;;;;;;2.59;100.00;146869.72;4978269;28;20253;-68
2024/01/30 06:59:13;;;;;;;4.57;3.10;;;;;;;2.62;100.00;146875.91;4977230;28;20229;-69
2024/01/30 07:01:40;;;;;;;4.60;3.20;;;;;;;2.86;100.00;146934.09;4973364;28;20437;-68
2024/01/30 07:04:07;;;;;;;3.63;2.57;;;;;;;2.78;100.00;146914.28;4974207;28;20239;-68
2024/01/30 07:06:33;;;;;;;4.03;2.70;;;;;;;3.02;100.00;146972.53;4974413;28;20249;-68
2024/01/30 07:09:00;;;;;;;6.23;4.20;;;;;;;2.97;100.00;146960.13;4979465;28;20243;-68
2024/01/30 07:11:28;;;;;;;5.93;4.30;;;;;;;2.95;100.00;146956.41;4974030;28;20252;-68
2024/01/30 07:13:56;;;;;;;9.80;6.03;;;;;;;3.02;100.00;146972.53;4973091;28;20336;-68
2024/01/30 07:16:23;;;;;;;6.50;5.17;;;;;;;2.95;100.00;146955.19;4975624;28;20228;-68
2024/01/30 07:18:50;;;;;;;6.17;3.53;;;;;;;2.96;100.00;146957.66;4974794;28;20318;-68
2024/01/30 07:21:17;;;;;;;7.47;3.70;;;;;;;2.99;100.00;146965.09;4975953;28;20237;-69
2024/01/30 07:23:43;;;;;;;4.07;2.97;;;;;;;2.97;100.00;146960.13;4965259;28;20698;-69
2024/01/30 07:26:10;;;;;;;5.13;3.10;;;;;;;2.92;100.00;146947.75;4967058;28;20236;-69
2024/01/30 07:28:37;;;;;;;16.90;4.63;;;;;;;2.93;100.00;146950.22;4975774;28;20229;-69
2024/01/30 07:31:06;;;;;;;18.07;5.63;;;;;;;2.96;100.00;146957.66;4977350;28;20273;-68
2024/01/30 07:33:32;;;;;;;15.97;5.70;;;;;;;2.91;100.00;146946.50;4972746;28;20225;-69
2024/01/30 07:35:59;;;;;;;13.70;5.63;;;;;;;2.93;100.00;146950.22;4975729;28;20693;-69
2024/01/30 07:38:32;;;;;;;14.50;5.87;;;;;;;2.87;100.00;146935.38;4970295;28;20253;-69
2024/01/30 07:40:59;;;;;;;12.67;7.23;;;;;;;2.84;100.00;146929.16;4971504;28;20601;-69
2024/01/30 07:43:28;;;;;;;19.30;9.83;;;;;;;2.79;100.00;146918.03;4973441;28;20217;-69
2024/01/30 07:45:55;;;;;;;20.97;12.07;;;;;;;2.77;100.00;146911.81;4973393;28;20233;-69
2024/01/30 07:48:23;;;;;;;17.70;11.70;;;;;;;2.78;100.00;146914.28;4974282;28;20332;-69
2024/01/30 07:50:50;;;;;;;19.90;10.63;;;;;;;2.77;100.00;146913.06;4976455;28;20229;-68
2024/01/30 07:53:16;;;;;;;17.17;10.30;;;;;;;2.77;100.00;146913.06;4978214;28;20233;-68
2024/01/30 07:55:46;;;;;;;16.13;9.57;;;;;;;2.81;100.00;146921.72;4974768;28;20709;-69
2024/01/30 07:58:13;;;;;;;15.82;10.50;;;;;;;2.84;100.00;146929.16;4979104;28;20844;-69
2024/01/30 08:00:40;;;;;;;16.30;10.20;;;;;;;2.86;100.00;146932.88;4972025;28;20240;-69
2024/01/30 08:03:07;;;;;;;16.13;9.23;;;;;;;2.95;100.00;146955.19;4981784;28;20245;-69
2024/01/30 08:05:35;;;;;;;14.47;8.67;;;;;;;3.00;100.00;146967.56;4973592;28;20231;-69
2024/01/30 08:08:01;;;;;;;13.97;9.07;;;;;;;3.05;100.00;146979.97;4974684;28;20233;-69
2024/01/30 08:10:28;;;;;;;20.03;8.90;;;;;;;3.12;100.00;146994.84;4974565;28;20221;-69
2024/01/30 08:12:55;;;;;;;14.27;8.90;;;;;;;3.22;100.00;147019.56;4992595;28;20245;-69
2024/01/30 08:15:21;;;;;;;12.17;8.10;;;;;;;3.24;100.00;147025.78;4972858;28;20241;-69
2024/01/30 08:17:48;;;;;;;14.83;9.60;;;;;;;3.23;100.00;147023.31;4974430;28;20226;-69
2024/01/30 08:20:15;;;;;;;16.43;9.03;;;;;;;3.29;100.00;147035.72;4975494;28;20236;-69
2024/01/30 08:22:43;;;;;;;16.23;8.47;;;;;;;3.34;100.00;147049.31;4972742;28;20693;-69
2024/01/30 08:25:10;;;;;;;13.17;8.10;;;;;;;3.40;100.00;147064.19;4974275;28;20692;-69
2024/01/30 08:27:38;;;;;;;13.80;8.70;;;;;;;3.53;100.00;147093.94;4978983;28;20283;-69
2024/01/30 08:30:06;;;;;;;14.33;8.47;;;;;;;3.57;100.00;147103.84;4978068;28;20233;-69
2024/01/30 08:32:33;;;;;;;14.97;8.50;;;;;;;3.61;100.00;147113.75;4979146;28;20232;-69
2024/01/30 08:35:03;;;;;;;13.20;8.10;;;;;;;3.68;100.00;147131.13;4972094;28;20248;-69
2024/01/30 08:37:30;;;;;;;13.47;7.30;;;;;;;3.74;100.00;147143.50;4972045;28;20213;-69
2024/01/30 08:39:58;;;;;;;11.23;7.07;;;;;;;3.83;100.00;147167.03;4972733;28;20577;-69
2024/01/30 08:42:25;;;;;;;24.13;15.40;;;;;;;3.87;100.00;147175.75;4972888;28;20696;-69
2024/01/30 08:44:53;;;;;;;14.27;8.03;;;;;;;3.94;100.00;147193.09;4975116;28;20235;-68
2024/01/30 08:47:19;;;;;;;9.87;7.03;;;;;;;4.10;100.00;147230.31;4972208;28;20226;-68
2024/01/30 08:49:46;;;;;;;12.67;6.53;;;;;;;4.20;100.00;147253.84;4974087;28;20228;-68
2024/01/30 08:52:13;;;;;;;10.10;6.63;;;;;;;4.32;100.00;147283.59;4973595;28;20279;-68
2024/01/30 08:54:39;;;;;;;12.00;7.43;;;;;;;4.33;100.00;147284.81;4970575;28;20233;-68
2024/01/30 08:57:07;;;;;;;10.77;7.67;;;;;;;4.45;100.00;147313.38;4973701;28;20229;-68
2024/01/30 08:59:34;;;;;;;13.90;8.70;;;;;;;4.55;100.00;147339.41;4970767;28;20225;-68
2024/01/30 09:02:01;;;;;;;16.03;9.00;;;;;;;4.57;100.00;147343.13;4974374;28;20394;-68
2024/01/30 09:04:27;;;;;;;13.07;9.67;;;;;;;4.62;100.00;147355.53;4970294;28;20680;-68
2024/01/30 09:06:54;;;;;;;12.60;8.87;;;;;;;4.78;100.00;147393.97;4972982;28;20257;-68
2024/01/30 09:09:21;;;;;;;12.47;7.47;;;;;;;4.91;100.00;147424.97;4972841;28;20247;-68
2024/01/30 09:11:48;;;;;;;15.93;9.00;;;;;;;4.93;100.00;147428.72;4976289;28;20786;-68
2024/01/30 09:14:16;;;;;;;13.03;8.60;;;;;;;5.08;100.00;147464.69;4975936;28;20231;-68
2024/01/30 09:16:42;;;;;;;13.93;7.53;;;;;;;5.24;100.00;147504.38;4973339;28;20697;-68
2024/01/30 09:19:09;;;;;;;12.20;8.20;;;;;;;5.37;100.00;147534.16;4990406;28;20229;-68
2024/01/30 09:21:36;;;;;;;13.50;7.63;;;;;;;5.47;100.00;147560.22;4971837;28;20237;-68
2024/01/30 09:24:03;;;;;;;13.23;8.53;;;;;;;5.66;100.00;147604.91;4962059;28;20293;-69
2024/01/30 09:26:29;;;;;;;14.93;7.77;;;;;;;5.64;100.00;147598.72;4970185;28;20360;-68
2024/01/30 09:28:56;;;;;;;13.20;8.60;;;;;;;5.82;100.00;147643.41;4974304;28;20566;-68
2024/01/30 09:31:24;;;;;;;11.17;7.60;;;;;;;5.95;99.43;147674.44;4961776;28;20256;-70
2024/01/30 09:33:53;;;;;;;12.77;7.50;;;;;;;6.09;97.31;147706.75;4971159;28;20245;-69
2024/01/30 09:36:20;;;;;;;12.17;7.17;;;;;;;6.24;97.24;147742.75;4972111;28;20597;-70
2024/01/30 09:38:47;;;;;;;10.50;7.27;;;;;;;6.33;96.86;147766.38;4969079;28;20241;-71
2024/01/30 09:41:13;;;;;;;10.53;6.77;;;;;;;6.33;97.78;147766.38;4973070;28;20240;-71
2024/01/30 09:43:41;;;;;;;14.90;7.80;;;;;;;6.50;97.48;147807.31;4968941;28;20237;-70
2024/01/30 09:46:12;;;;;;;10.33;7.53;;;;;;;6.57;94.63;147823.47;4971614;28;20217;-68
2024/01/30 09:48:42;;;;;;;13.37;7.93;;;;;;;6.54;89.42;147814.78;4975899;28;20234;-70
2024/01/30 09:51:10;;;;;;;13.33;7.63;;;;;;;6.61;89.53;147833.38;4972886;28;20256;-68
2024/01/30 09:54:26;;;;;;;14.77;7.17;;;;;;;6.53;87.24;147812.28;4968381;28;20233;-68
2024/01/30 09:56:53;;;;;;;11.47;6.70;;;;;;;6.53;87.73;147812.28;4968843;28;20225;-68
2024/01/30 09:59:19;;;;;;;13.57;6.97;;;;;;;6.74;87.96;147863.19;4969303;28;20232;-68
2024/01/30 10:01:46;;;;;;;9.30;6.13;;;;;;;6.86;87.88;147891.81;4976815;28;20235;-68
2024/01/30 10:04:14;;;;;;;11.00;6.40;;;;;;;7.05;85.11;147938.97;4975010;28;20240;-68
2024/01/30 10:06:41;;;;;;;10.23;6.13;;;;;;;7.17;87.98;147966.31;4974022;28;20256;-68
2024/01/30 10:09:08;;;;;;;16.73;8.83;;;;;;;7.29;87.80;147994.91;4977017;28;20310;-68
2024/01/30 10:11:35;;;;;;;15.23;9.43;;;;;;;7.29;89.06;147994.91;4970433;28;20688;-68
2024/01/30 10:14:02;;;;;;;15.57;8.93;;;;;;;7.49;90.02;148043.38;4977538;28;20242;-68
2024/01/30 10:16:29;;;;;;;13.03;7.93;;;;;;;7.58;90.89;148064.47;4981506;28;20580;-68
2024/01/30 10:18:55;;;;;;;17.60;8.80;;;;;;;7.61;89.88;148073.19;4991784;28;20236;-68
2024/01/30 10:21:24;;;;;;;14.60;8.20;;;;;;;7.68;89.01;148090.59;4976065;28;20577;-69
2024/01/30 10:23:51;;;;;;;20.40;8.23;;;;;;;7.82;87.51;148122.94;4974260;28;20236;-68
2024/01/30 10:26:18;;;;;;;13.83;8.27;;;;;;;7.93;85.36;148150.28;4988316;28;20223;-68
2024/01/30 10:28:45;;;;;;;16.40;10.50;;;;;;;7.95;85.51;148155.19;4975632;28;20892;-68
2024/01/30 10:31:11;;;;;;;15.57;9.57;;;;;;;7.93;85.41;148149.00;4940446;28;1060230;-68
2024/01/30 10:33:38;;;;;;;13.13;8.53;;;;;;;7.64;84.48;148080.66;4987068;28;20226;-68
2024/01/30 10:36:06;;;;;;;14.70;8.97;;;;;;;7.59;84.67;148066.97;4977638;28;20258;-68
2024/01/30 10:38:34;;;;;;;12.87;8.20;;;;;;;7.73;82.40;148100.56;4973774;28;20704;-68
2024/01/30 10:41:02;;;;;;;11.77;7.80;;;;;;;7.74;82.63;148104.25;4983656;28;20329;-68
2024/01/30 10:43:33;;;;;;;12.60;8.27;;;;;;;7.73;84.96;148101.75;4974599;28;20764;-68
2024/01/30 10:46:11;;;;;;;13.07;7.07;;;;;;;7.75;83.37;148105.53;4990242;28;20237;-68
2024/01/30 10:48:42;;;;;;;11.93;8.20;;;;;;;7.90;84.10;148141.56;4973045;28;20229;-68
2024/01/30 10:51:12;;;;;;;14.90;7.83;;;;;;;8.01;86.34;148168.91;4975338;28;20769;-68
2024/01/30 10:53:40;;;;;;;11.37;7.73;;;;;;;8.11;86.76;148192.50;4980312;28;20256;-68
2024/01/30 10:56:09;;;;;;;21.03;11.60;;;;;;;8.09;85.72;148188.81;4975517;28;20236;-68
2024/01/30 10:58:35;;;;;;;16.07;9.43;;;;;;;7.97;87.61;148160.19;4972891;28;20225;-68
2024/01/30 11:01:03;;;;;;;17.73;10.13;;;;;;;8.10;87.11;148191.28;4976445;28;20248;-68
2024/01/30 11:03:34;;;;;;;15.47;10.20;;;;;;;8.24;88.27;148223.63;4974997;28;20233;-68
2024/01/30 11:06:01;;;;;;;16.20;10.40;;;;;;;8.32;87.39;148243.53;4976299;28;20226;-68
2024/01/30 11:08:33;;;;;;;15.90;9.50;;;;;;;8.40;86.80;148262.16;4975400;28;20226;-68
2024/01/30 11:11:01;;;;;;;13.80;9.17;;;;;;;8.50;85.46;148285.81;4978815;28;20265;-68
2024/01/30 11:13:31;;;;;;;16.10;9.97;;;;;;;8.62;85.26;148314.44;4975756;28;20643;-69
2024/01/30 11:16:01;;;;;;;13.33;9.40;;;;;;;8.68;87.02;148329.38;4976625;28;20252;-69
2024/01/30 11:18:32;;;;;;;14.80;8.90;;;;;;;8.74;86.09;148344.28;4977514;28;20217;-69
2024/01/30 11:21:01;;;;;;;14.87;9.60;;;;;;;8.81;84.49;148361.72;4972806;28;20249;-69
2024/01/30 11:23:32;;;;;;;15.20;8.97;;;;;;;9.00;85.42;148407.72;4975294;28;20273;-69